sensor_id;sensor_type;location;lat;lon;timestamp;temperature;humidity
56512;DHT22;42408;53.238;5.686;2023-03-21T00:01:19;9.10;99.90
56512;DHT22;42408;53.238;5.686;2023-03-21T00:03:44;9.10;99.90
56512;DHT22;42408;53.238;5.686;2023-03-21T00:06:12;9.10;99.90
56512;DHT22;42408;53.238;5.686;2023-03-21T00:08:39;9.10;99.90
56512;DHT22;42408;53.238;5.686;2023-03-21T00:11:07;9.10;99.90
56512;DHT22;42408;53.238;5.686;2023-03-21T00:13:33;9.10;99.90
56512;DHT22;42408;53.238;5.686;2023-03-21T00:18:34;9.10;99.90
56512;DHT22;42408;53.238;5.686;2023-03-21T00:21:07;9.10;99.90
56512;DHT22;42408;53.238;5.686;2023-03-21T00:23:33;9.10;99.90
56512;DHT22;42408;53.238;5.686;2023-03-21T00:25:59;9.10;99.90
56512;DHT22;42408;53.238;5.686;2023-03-21T00:28:26;9.10;99.90
56512;DHT22;42408;53.238;5.686;2023-03-21T00:30:57;9.10;99.90
56512;DHT22;42408;53.238;5.686;2023-03-21T00:33:24;9.10;99.90
56512;DHT22;42408;53.238;5.686;2023-03-21T00:35:50;9.10;99.90
56512;DHT22;42408;53.238;5.686;2023-03-21T00:38:17;9.10;99.90
56512;DHT22;42408;53.238;5.686;2023-03-21T00:40:43;9.10;99.90
56512;DHT22;42408;53.238;5.686;2023-03-21T00:43:09;9.10;99.90
56512;DHT22;42408;53.238;5.686;2023-03-21T00:45:36;9.10;99.90
56512;DHT22;42408;53.238;5.686;2023-03-21T00:48:03;9.10;99.90
56512;DHT22;42408;53.238;5.686;2023-03-21T00:50:30;9.10;99.90
56512;DHT22;42408;53.238;5.686;2023-03-21T00:52:57;9.10;99.90
56512;DHT22;42408;53.238;5.686;2023-03-21T00:55:23;9.10;99.90
56512;DHT22;42408;53.238;5.686;2023-03-21T00:57:48;9.10;99.90
56512;DHT22;42408;53.238;5.686;2023-03-21T01:00:15;9.10;99.90
56512;DHT22;42408;53.238;5.686;2023-03-21T01:02:42;9.10;99.90
56512;DHT22;42408;53.238;5.686;2023-03-21T01:05:30;9.10;99.90
56512;DHT22;42408;53.238;5.686;2023-03-21T01:08:16;9.10;99.90
56512;DHT22;42408;53.238;5.686;2023-03-21T01:10:46;9.10;99.90
56512;DHT22;42408;53.238;5.686;2023-03-21T01:13:14;9.10;99.90
56512;DHT22;42408;53.238;5.686;2023-03-21T01:15:52;9.10;99.90
56512;DHT22;42408;53.238;5.686;2023-03-21T01:18:20;9.10;99.90
56512;DHT22;42408;53.238;5.686;2023-03-21T01:20:46;9.10;99.90
56512;DHT22;42408;53.238;5.686;2023-03-21T01:23:13;9.10;99.90
56512;DHT22;42408;53.238;5.686;2023-03-21T01:25:40;9.10;99.90
56512;DHT22;42408;53.238;5.686;2023-03-21T01:28:06;9.10;99.90
56512;DHT22;42408;53.238;5.686;2023-03-21T01:30:32;9.10;99.90
56512;DHT22;42408;53.238;5.686;2023-03-21T01:32:58;9.10;99.90
56512;DHT22;42408;53.238;5.686;2023-03-21T01:35:24;9.10;99.90
56512;DHT22;42408;53.238;5.686;2023-03-21T01:37:50;9.10;99.90
56512;DHT22;42408;53.238;5.686;2023-03-21T01:40:22;9.00;99.90
56512;DHT22;42408;53.238;5.686;2023-03-21T01:42:48;9.10;99.90
56512;DHT22;42408;53.238;5.686;2023-03-21T01:48:18;9.10;99.90
56512;DHT22;42408;53.238;5.686;2023-03-21T01:50:43;9.10;99.90
56512;DHT22;42408;53.238;5.686;2023-03-21T01:53:10;9.10;99.90
56512;DHT22;42408;53.238;5.686;2023-03-21T01:55:37;9.10;99.90
56512;DHT22;42408;53.238;5.686;2023-03-21T01:58:04;9.10;99.90
56512;DHT22;42408;53.238;5.686;2023-03-21T02:00:31;9.10;99.90
56512;DHT22;42408;53.238;5.686;2023-03-21T02:02:59;9.10;99.90
56512;DHT22;42408;53.238;5.686;2023-03-21T02:05:36;9.10;99.90
56512;DHT22;42408;53.238;5.686;2023-03-21T02:08:02;9.10;99.90
56512;DHT22;42408;53.238;5.686;2023-03-21T02:10:30;9.10;99.90
56512;DHT22;42408;53.238;5.686;2023-03-21T02:12:58;9.10;99.90
56512;DHT22;42408;53.238;5.686;2023-03-21T02:15:32;9.10;99.90
56512;DHT22;42408;53.238;5.686;2023-03-21T02:24:09;9.10;99.90
56512;DHT22;42408;53.238;5.686;2023-03-21T02:30:24;9.10;99.90
56512;DHT22;42408;53.238;5.686;2023-03-21T02:38:23;9.10;99.90
56512;DHT22;42408;53.238;5.686;2023-03-21T02:41:20;9.10;99.90
56512;DHT22;42408;53.238;5.686;2023-03-21T02:43:50;9.10;99.90
56512;DHT22;42408;53.238;5.686;2023-03-21T02:46:31;9.00;99.90
56512;DHT22;42408;53.238;5.686;2023-03-21T02:49:07;9.00;99.90
56512;DHT22;42408;53.238;5.686;2023-03-21T02:51:36;9.00;99.90
56512;DHT22;42408;53.238;5.686;2023-03-21T02:54:08;9.00;99.90
56512;DHT22;42408;53.238;5.686;2023-03-21T02:56:34;9.00;99.90
56512;DHT22;42408;53.238;5.686;2023-03-21T02:59:03;9.00;99.90
56512;DHT22;42408;53.238;5.686;2023-03-21T03:01:29;9.10;99.90
56512;DHT22;42408;53.238;5.686;2023-03-21T03:03:56;9.00;99.90
56512;DHT22;42408;53.238;5.686;2023-03-21T03:06:36;9.00;99.90
56512;DHT22;42408;53.238;5.686;2023-03-21T03:09:34;9.00;99.90
56512;DHT22;42408;53.238;5.686;2023-03-21T03:23:45;9.00;99.90
56512;DHT22;42408;53.238;5.686;2023-03-21T03:26:22;9.00;99.90
56512;DHT22;42408;53.238;5.686;2023-03-21T03:28:53;9.00;99.90
56512;DHT22;42408;53.238;5.686;2023-03-21T03:31:26;9.10;99.90
56512;DHT22;42408;53.238;5.686;2023-03-21T03:33:56;9.00;99.90
56512;DHT22;42408;53.238;5.686;2023-03-21T03:36:26;9.00;99.90
56512;DHT22;42408;53.238;5.686;2023-03-21T03:38:54;9.00;99.90
56512;DHT22;42408;53.238;5.686;2023-03-21T03:41:24;9.00;99.90
56512;DHT22;42408;53.238;5.686;2023-03-21T03:43:54;9.10;99.90
56512;DHT22;42408;53.238;5.686;2023-03-21T03:46:34;9.00;99.90
56512;DHT22;42408;53.238;5.686;2023-03-21T03:49:08;9.20;99.90
56512;DHT22;42408;53.238;5.686;2023-03-21T03:51:40;9.10;99.90
56512;DHT22;42408;53.238;5.686;2023-03-21T03:54:11;9.10;99.90
56512;DHT22;42408;53.238;5.686;2023-03-21T03:56:38;9.00;99.90
56512;DHT22;42408;53.238;5.686;2023-03-21T03:59:05;9.10;99.90
56512;DHT22;42408;53.238;5.686;2023-03-21T04:01:33;9.00;99.90
56512;DHT22;42408;53.238;5.686;2023-03-21T04:03:59;9.00;99.90
56512;DHT22;42408;53.238;5.686;2023-03-21T04:06:25;9.10;99.90
56512;DHT22;42408;53.238;5.686;2023-03-21T04:08:56;9.10;99.90
56512;DHT22;42408;53.238;5.686;2023-03-21T04:11:22;9.10;99.90
56512;DHT22;42408;53.238;5.686;2023-03-21T04:13:47;9.00;99.90
56512;DHT22;42408;53.238;5.686;2023-03-21T04:16:13;9.00;99.90
56512;DHT22;42408;53.238;5.686;2023-03-21T04:18:39;9.00;99.90
56512;DHT22;42408;53.238;5.686;2023-03-21T04:21:10;9.10;99.90
56512;DHT22;42408;53.238;5.686;2023-03-21T04:23:37;9.10;99.90
56512;DHT22;42408;53.238;5.686;2023-03-21T04:26:04;9.10;99.90
56512;DHT22;42408;53.238;5.686;2023-03-21T04:28:31;9.10;99.90
56512;DHT22;42408;53.238;5.686;2023-03-21T04:30:58;9.10;99.90
56512;DHT22;42408;53.238;5.686;2023-03-21T04:33:24;9.10;99.90
56512;DHT22;42408;53.238;5.686;2023-03-21T04:35:53;9.10;99.90
56512;DHT22;42408;53.238;5.686;2023-03-21T04:38:24;9.10;99.90
56512;DHT22;42408;53.238;5.686;2023-03-21T04:40:55;9.10;99.90
56512;DHT22;42408;53.238;5.686;2023-03-21T04:43:21;9.10;99.90
56512;DHT22;42408;53.238;5.686;2023-03-21T04:45:48;9.10;99.90
56512;DHT22;42408;53.238;5.686;2023-03-21T04:48:14;9.10;99.90
56512;DHT22;42408;53.238;5.686;2023-03-21T04:50:43;9.00;99.90
56512;DHT22;42408;53.238;5.686;2023-03-21T04:53:08;9.10;99.90
56512;DHT22;42408;53.238;5.686;2023-03-21T04:55:34;9.10;99.90
56512;DHT22;42408;53.238;5.686;2023-03-21T04:58:02;9.10;99.90
56512;DHT22;42408;53.238;5.686;2023-03-21T05:00:28;9.10;99.90
56512;DHT22;42408;53.238;5.686;2023-03-21T05:02:54;9.10;99.90
56512;DHT22;42408;53.238;5.686;2023-03-21T05:05:22;9.10;99.90
56512;DHT22;42408;53.238;5.686;2023-03-21T05:07:47;9.10;99.90
56512;DHT22;42408;53.238;5.686;2023-03-21T05:10:13;9.10;99.90
56512;DHT22;42408;53.238;5.686;2023-03-21T05:12:39;9.10;99.90
56512;DHT22;42408;53.238;5.686;2023-03-21T05:15:05;9.10;99.90
56512;DHT22;42408;53.238;5.686;2023-03-21T05:17:31;9.20;99.90
56512;DHT22;42408;53.238;5.686;2023-03-21T05:19:57;9.20;99.90
56512;DHT22;42408;53.238;5.686;2023-03-21T05:22:23;9.10;99.90
56512;DHT22;42408;53.238;5.686;2023-03-21T05:24:51;9.10;99.90
56512;DHT22;42408;53.238;5.686;2023-03-21T05:27:21;9.20;99.90
56512;DHT22;42408;53.238;5.686;2023-03-21T05:30:12;9.10;99.90
56512;DHT22;42408;53.238;5.686;2023-03-21T05:32:38;9.20;99.90
56512;DHT22;42408;53.238;5.686;2023-03-21T05:35:04;9.20;99.90
56512;DHT22;42408;53.238;5.686;2023-03-21T05:37:30;9.20;99.90
56512;DHT22;42408;53.238;5.686;2023-03-21T05:39:55;9.20;99.90
56512;DHT22;42408;53.238;5.686;2023-03-21T05:42:21;9.20;99.90
56512;DHT22;42408;53.238;5.686;2023-03-21T05:44:47;9.20;99.90
56512;DHT22;42408;53.238;5.686;2023-03-21T05:47:14;9.20;99.90
56512;DHT22;42408;53.238;5.686;2023-03-21T05:49:40;9.20;99.90
56512;DHT22;42408;53.238;5.686;2023-03-21T05:52:06;9.20;99.90
56512;DHT22;42408;53.238;5.686;2023-03-21T05:54:32;9.20;99.90
56512;DHT22;42408;53.238;5.686;2023-03-21T05:56:58;9.20;99.90
56512;DHT22;42408;53.238;5.686;2023-03-21T05:59:24;9.10;99.90
56512;DHT22;42408;53.238;5.686;2023-03-21T06:01:49;9.20;99.90
56512;DHT22;42408;53.238;5.686;2023-03-21T06:04:15;9.20;99.90
56512;DHT22;42408;53.238;5.686;2023-03-21T06:06:41;9.10;99.90
56512;DHT22;42408;53.238;5.686;2023-03-21T06:09:06;9.10;99.90
56512;DHT22;42408;53.238;5.686;2023-03-21T06:11:34;9.20;99.90
56512;DHT22;42408;53.238;5.686;2023-03-21T06:14:01;9.10;99.90
56512;DHT22;42408;53.238;5.686;2023-03-21T06:16:27;9.20;99.90
56512;DHT22;42408;53.238;5.686;2023-03-21T06:18:53;9.20;99.90
56512;DHT22;42408;53.238;5.686;2023-03-21T06:21:19;9.20;99.90
56512;DHT22;42408;53.238;5.686;2023-03-21T06:23:46;9.20;99.90
56512;DHT22;42408;53.238;5.686;2023-03-21T06:26:12;9.20;99.90
56512;DHT22;42408;53.238;5.686;2023-03-21T06:28:38;9.20;99.90
56512;DHT22;42408;53.238;5.686;2023-03-21T06:31:04;9.20;99.90
56512;DHT22;42408;53.238;5.686;2023-03-21T06:33:31;9.20;99.90
56512;DHT22;42408;53.238;5.686;2023-03-21T06:35:57;9.20;99.90
56512;DHT22;42408;53.238;5.686;2023-03-21T06:38:24;9.20;99.90
56512;DHT22;42408;53.238;5.686;2023-03-21T06:40:50;9.20;99.90
56512;DHT22;42408;53.238;5.686;2023-03-21T06:43:16;9.30;99.90
56512;DHT22;42408;53.238;5.686;2023-03-21T06:45:42;9.20;99.90
56512;DHT22;42408;53.238;5.686;2023-03-21T06:48:08;9.30;99.90
56512;DHT22;42408;53.238;5.686;2023-03-21T06:50:34;9.30;99.90
56512;DHT22;42408;53.238;5.686;2023-03-21T06:53:00;9.30;99.90
56512;DHT22;42408;53.238;5.686;2023-03-21T06:55:26;9.30;99.90
56512;DHT22;42408;53.238;5.686;2023-03-21T06:57:54;9.30;99.90
56512;DHT22;42408;53.238;5.686;2023-03-21T07:00:21;9.30;99.90
56512;DHT22;42408;53.238;5.686;2023-03-21T07:02:47;9.30;99.90
56512;DHT22;42408;53.238;5.686;2023-03-21T07:05:13;9.30;99.90
56512;DHT22;42408;53.238;5.686;2023-03-21T07:07:39;9.30;99.90
56512;DHT22;42408;53.238;5.686;2023-03-21T07:10:06;9.30;99.90
56512;DHT22;42408;53.238;5.686;2023-03-21T07:12:32;9.30;99.90
56512;DHT22;42408;53.238;5.686;2023-03-21T07:15:00;9.30;99.90
56512;DHT22;42408;53.238;5.686;2023-03-21T07:17:26;9.30;99.90
56512;DHT22;42408;53.238;5.686;2023-03-21T07:19:52;9.30;99.90
56512;DHT22;42408;53.238;5.686;2023-03-21T07:22:17;9.40;99.90
56512;DHT22;42408;53.238;5.686;2023-03-21T07:24:43;9.40;99.90
56512;DHT22;42408;53.238;5.686;2023-03-21T07:27:13;9.40;99.90
56512;DHT22;42408;53.238;5.686;2023-03-21T07:29:39;9.40;99.90
56512;DHT22;42408;53.238;5.686;2023-03-21T07:32:06;9.40;99.90
56512;DHT22;42408;53.238;5.686;2023-03-21T07:34:31;9.40;99.90
56512;DHT22;42408;53.238;5.686;2023-03-21T07:36:58;9.40;99.90
56512;DHT22;42408;53.238;5.686;2023-03-21T07:39:25;9.50;99.90
56512;DHT22;42408;53.238;5.686;2023-03-21T07:41:52;9.50;99.90
56512;DHT22;42408;53.238;5.686;2023-03-21T07:44:20;9.50;99.90
56512;DHT22;42408;53.238;5.686;2023-03-21T07:46:46;9.50;99.90
56512;DHT22;42408;53.238;5.686;2023-03-21T07:49:12;9.50;99.90
56512;DHT22;42408;53.238;5.686;2023-03-21T07:51:38;9.50;99.90
56512;DHT22;42408;53.238;5.686;2023-03-21T07:54:03;9.50;99.90
56512;DHT22;42408;53.238;5.686;2023-03-21T07:56:29;9.50;99.90
56512;DHT22;42408;53.238;5.686;2023-03-21T07:58:55;9.60;99.90
56512;DHT22;42408;53.238;5.686;2023-03-21T08:01:21;9.60;99.90
56512;DHT22;42408;53.238;5.686;2023-03-21T08:03:46;9.50;99.90
56512;DHT22;42408;53.238;5.686;2023-03-21T08:06:12;9.60;99.90
56512;DHT22;42408;53.238;5.686;2023-03-21T08:08:38;9.60;99.90
56512;DHT22;42408;53.238;5.686;2023-03-21T08:11:04;9.60;99.90
56512;DHT22;42408;53.238;5.686;2023-03-21T08:13:31;9.50;99.90
56512;DHT22;42408;53.238;5.686;2023-03-21T08:15:57;9.60;99.90
56512;DHT22;42408;53.238;5.686;2023-03-21T08:18:22;9.70;99.90
56512;DHT22;42408;53.238;5.686;2023-03-21T08:20:52;9.70;99.90
56512;DHT22;42408;53.238;5.686;2023-03-21T08:23:18;9.70;99.90
56512;DHT22;42408;53.238;5.686;2023-03-21T08:25:43;9.70;99.90
56512;DHT22;42408;53.238;5.686;2023-03-21T08:28:09;9.60;99.90
56512;DHT22;42408;53.238;5.686;2023-03-21T08:30:37;9.80;99.90
56512;DHT22;42408;53.238;5.686;2023-03-21T08:33:03;9.70;99.90
56512;DHT22;42408;53.238;5.686;2023-03-21T08:35:29;9.80;99.90
56512;DHT22;42408;53.238;5.686;2023-03-21T08:37:55;9.80;99.90
56512;DHT22;42408;53.238;5.686;2023-03-21T08:40:21;9.80;99.90
56512;DHT22;42408;53.238;5.686;2023-03-21T08:42:47;9.80;99.90
56512;DHT22;42408;53.238;5.686;2023-03-21T08:45:14;9.80;99.90
56512;DHT22;42408;53.238;5.686;2023-03-21T08:47:41;9.90;99.90
56512;DHT22;42408;53.238;5.686;2023-03-21T08:50:14;9.90;99.90
56512;DHT22;42408;53.238;5.686;2023-03-21T08:52:40;9.90;99.90
56512;DHT22;42408;53.238;5.686;2023-03-21T08:55:06;9.90;99.90
56512;DHT22;42408;53.238;5.686;2023-03-21T08:57:32;9.90;99.90
56512;DHT22;42408;53.238;5.686;2023-03-21T08:59:58;9.90;99.90
56512;DHT22;42408;53.238;5.686;2023-03-21T09:02:23;9.90;99.90
56512;DHT22;42408;53.238;5.686;2023-03-21T09:04:49;9.90;99.90
56512;DHT22;42408;53.238;5.686;2023-03-21T09:07:17;9.90;99.90
56512;DHT22;42408;53.238;5.686;2023-03-21T09:09:43;9.90;99.90
56512;DHT22;42408;53.238;5.686;2023-03-21T09:12:09;9.90;99.90
56512;DHT22;42408;53.238;5.686;2023-03-21T09:14:34;9.90;99.90
56512;DHT22;42408;53.238;5.686;2023-03-21T09:17:00;9.80;99.90
56512;DHT22;42408;53.238;5.686;2023-03-21T09:19:26;9.90;99.90
56512;DHT22;42408;53.238;5.686;2023-03-21T09:21:53;9.80;99.90
56512;DHT22;42408;53.238;5.686;2023-03-21T09:24:20;9.80;99.90
56512;DHT22;42408;53.238;5.686;2023-03-21T09:26:46;9.80;99.90
56512;DHT22;42408;53.238;5.686;2023-03-21T09:29:15;9.80;99.90
56512;DHT22;42408;53.238;5.686;2023-03-21T09:31:42;9.80;99.90
56512;DHT22;42408;53.238;5.686;2023-03-21T09:34:08;9.80;99.90
56512;DHT22;42408;53.238;5.686;2023-03-21T09:36:34;9.80;99.90
56512;DHT22;42408;53.238;5.686;2023-03-21T09:39:00;9.70;99.90
56512;DHT22;42408;53.238;5.686;2023-03-21T09:42:04;9.80;99.90
56512;DHT22;42408;53.238;5.686;2023-03-21T09:47:27;9.80;99.90
56512;DHT22;42408;53.238;5.686;2023-03-21T09:49:58;9.80;99.90
56512;DHT22;42408;53.238;5.686;2023-03-21T09:55:04;9.90;99.90
56512;DHT22;42408;53.238;5.686;2023-03-21T09:57:44;10.00;99.90
56512;DHT22;42408;53.238;5.686;2023-03-21T10:00:16;10.10;99.90
56512;DHT22;42408;53.238;5.686;2023-03-21T10:02:49;10.10;99.90
56512;DHT22;42408;53.238;5.686;2023-03-21T10:05:23;10.20;99.90
56512;DHT22;42408;53.238;5.686;2023-03-21T10:10:28;10.40;99.90
56512;DHT22;42408;53.238;5.686;2023-03-21T10:12:56;10.40;99.90
56512;DHT22;42408;53.238;5.686;2023-03-21T10:15:24;10.50;99.90
56512;DHT22;42408;53.238;5.686;2023-03-21T10:18:02;10.60;99.90
56512;DHT22;42408;53.238;5.686;2023-03-21T10:20:32;10.60;99.90
56512;DHT22;42408;53.238;5.686;2023-03-21T10:23:00;10.60;99.90
56512;DHT22;42408;53.238;5.686;2023-03-21T10:27:57;10.70;99.90
56512;DHT22;42408;53.238;5.686;2023-03-21T10:30:25;10.80;99.90
56512;DHT22;42408;53.238;5.686;2023-03-21T10:32:55;10.80;99.90
56512;DHT22;42408;53.238;5.686;2023-03-21T10:35:21;10.90;99.90
56512;DHT22;42408;53.238;5.686;2023-03-21T10:37:46;10.90;99.90
56512;DHT22;42408;53.238;5.686;2023-03-21T10:40:16;11.00;99.90
56512;DHT22;42408;53.238;5.686;2023-03-21T10:42:42;11.00;99.90
56512;DHT22;42408;53.238;5.686;2023-03-21T10:45:17;11.00;99.90
56512;DHT22;42408;53.238;5.686;2023-03-21T10:47:46;11.00;99.90
56512;DHT22;42408;53.238;5.686;2023-03-21T10:50:15;11.00;99.90
56512;DHT22;42408;53.238;5.686;2023-03-21T10:52:54;11.10;99.90
56512;DHT22;42408;53.238;5.686;2023-03-21T10:55:33;11.10;99.90
56512;DHT22;42408;53.238;5.686;2023-03-21T10:58:06;11.10;99.90
56512;DHT22;42408;53.238;5.686;2023-03-21T11:00:42;11.20;99.90
56512;DHT22;42408;53.238;5.686;2023-03-21T11:03:35;11.20;99.90
56512;DHT22;42408;53.238;5.686;2023-03-21T11:06:06;11.30;99.90
56512;DHT22;42408;53.238;5.686;2023-03-21T11:08:53;11.30;99.90
56512;DHT22;42408;53.238;5.686;2023-03-21T11:11:24;11.40;99.90
56512;DHT22;42408;53.238;5.686;2023-03-21T11:14:00;11.50;99.90
56512;DHT22;42408;53.238;5.686;2023-03-21T11:16:39;11.60;99.90
56512;DHT22;42408;53.238;5.686;2023-03-21T11:19:17;11.70;99.90
56512;DHT22;42408;53.238;5.686;2023-03-21T11:21:43;11.70;99.90
56512;DHT22;42408;53.238;5.686;2023-03-21T11:24:16;11.70;99.90
56512;DHT22;42408;53.238;5.686;2023-03-21T11:26:48;11.80;99.90
56512;DHT22;42408;53.238;5.686;2023-03-21T11:31:40;11.80;99.90
56512;DHT22;42408;53.238;5.686;2023-03-21T11:34:07;11.70;99.90
56512;DHT22;42408;53.238;5.686;2023-03-21T11:36:35;11.70;99.90
56512;DHT22;42408;53.238;5.686;2023-03-21T11:39:27;11.70;99.90
56512;DHT22;42408;53.238;5.686;2023-03-21T11:41:54;11.60;99.90
56512;DHT22;42408;53.238;5.686;2023-03-21T11:44:32;11.60;99.90
56512;DHT22;42408;53.238;5.686;2023-03-21T11:46:58;11.50;99.90
56512;DHT22;42408;53.238;5.686;2023-03-21T11:49:25;11.50;99.90
56512;DHT22;42408;53.238;5.686;2023-03-21T11:58:08;11.40;99.90
56512;DHT22;42408;53.238;5.686;2023-03-21T12:09:13;11.40;99.90
56512;DHT22;42408;53.238;5.686;2023-03-21T12:12:13;11.50;99.90
56512;DHT22;42408;53.238;5.686;2023-03-21T12:15:05;11.60;99.90
56512;DHT22;42408;53.238;5.686;2023-03-21T12:20:20;11.60;99.90
56512;DHT22;42408;53.238;5.686;2023-03-21T12:39:31;12.00;99.90
56512;DHT22;42408;53.238;5.686;2023-03-21T12:44:48;11.90;99.90
56512;DHT22;42408;53.238;5.686;2023-03-21T12:47:27;11.90;99.90
56512;DHT22;42408;53.238;5.686;2023-03-21T12:50:14;11.90;99.90
56512;DHT22;42408;53.238;5.686;2023-03-21T12:52:45;12.00;99.90
56512;DHT22;42408;53.238;5.686;2023-03-21T12:55:17;11.90;99.90
56512;DHT22;42408;53.238;5.686;2023-03-21T13:00:22;11.90;99.90
56512;DHT22;42408;53.238;5.686;2023-03-21T13:05:52;11.80;99.90
56512;DHT22;42408;53.238;5.686;2023-03-21T13:08:33;11.90;99.90
56512;DHT22;42408;53.238;5.686;2023-03-21T13:11:02;12.00;99.90
56512;DHT22;42408;53.238;5.686;2023-03-21T13:13:43;12.20;99.90
56512;DHT22;42408;53.238;5.686;2023-03-21T13:24:23;12.40;99.90
56512;DHT22;42408;53.238;5.686;2023-03-21T13:27:02;12.40;99.90
56512;DHT22;42408;53.238;5.686;2023-03-21T13:34:40;12.50;99.90
56512;DHT22;42408;53.238;5.686;2023-03-21T13:37:16;12.50;99.90
56512;DHT22;42408;53.238;5.686;2023-03-21T13:39:45;12.40;99.90
56512;DHT22;42408;53.238;5.686;2023-03-21T13:42:20;12.30;99.90
56512;DHT22;42408;53.238;5.686;2023-03-21T13:44:51;12.30;99.90
56512;DHT22;42408;53.238;5.686;2023-03-21T13:47:34;12.40;99.90
56512;DHT22;42408;53.238;5.686;2023-03-21T13:55:43;12.70;99.90
56512;DHT22;42408;53.238;5.686;2023-03-21T14:03:48;12.90;99.90
56512;DHT22;42408;53.238;5.686;2023-03-21T14:06:15;13.00;99.90
56512;DHT22;42408;53.238;5.686;2023-03-21T14:08:47;13.00;99.90
56512;DHT22;42408;53.238;5.686;2023-03-21T14:11:16;12.90;99.90
56512;DHT22;42408;53.238;5.686;2023-03-21T14:13:43;12.90;99.90
56512;DHT22;42408;53.238;5.686;2023-03-21T14:16:13;12.90;99.90
56512;DHT22;42408;53.238;5.686;2023-03-21T14:18:53;12.90;99.90
56512;DHT22;42408;53.238;5.686;2023-03-21T14:21:24;12.90;99.90
56512;DHT22;42408;53.238;5.686;2023-03-21T14:24:11;12.90;99.90
56512;DHT22;42408;53.238;5.686;2023-03-21T14:26:44;12.80;99.90
56512;DHT22;42408;53.238;5.686;2023-03-21T14:29:19;12.70;99.90
56512;DHT22;42408;53.238;5.686;2023-03-21T14:31:46;12.70;99.90
56512;DHT22;42408;53.238;5.686;2023-03-21T14:34:13;12.60;99.90
56512;DHT22;42408;53.238;5.686;2023-03-21T14:36:41;12.50;99.90
56512;DHT22;42408;53.238;5.686;2023-03-21T14:39:13;12.40;99.90
56512;DHT22;42408;53.238;5.686;2023-03-21T14:41:49;12.40;99.90
56512;DHT22;42408;53.238;5.686;2023-03-21T14:46:42;12.20;99.90
56512;DHT22;42408;53.238;5.686;2023-03-21T14:49:11;12.10;99.90
56512;DHT22;42408;53.238;5.686;2023-03-21T14:51:37;12.20;99.90
56512;DHT22;42408;53.238;5.686;2023-03-21T14:54:04;12.10;99.90
56512;DHT22;42408;53.238;5.686;2023-03-21T14:56:38;12.00;99.90
56512;DHT22;42408;53.238;5.686;2023-03-21T14:59:04;12.00;99.90
56512;DHT22;42408;53.238;5.686;2023-03-21T15:01:31;11.90;99.90
56512;DHT22;42408;53.238;5.686;2023-03-21T15:04:00;11.80;99.90
56512;DHT22;42408;53.238;5.686;2023-03-21T15:06:29;11.80;99.90
56512;DHT22;42408;53.238;5.686;2023-03-21T15:09:00;11.70;99.90
56512;DHT22;42408;53.238;5.686;2023-03-21T15:11:34;11.70;99.90
56512;DHT22;42408;53.238;5.686;2023-03-21T15:14:07;11.70;99.90
56512;DHT22;42408;53.238;5.686;2023-03-21T15:16:34;11.70;99.90
56512;DHT22;42408;53.238;5.686;2023-03-21T15:19:01;11.70;99.90
56512;DHT22;42408;53.238;5.686;2023-03-21T15:21:33;11.60;99.90
56512;DHT22;42408;53.238;5.686;2023-03-21T15:24:15;11.50;99.90
56512;DHT22;42408;53.238;5.686;2023-03-21T15:26:46;11.50;99.90
56512;DHT22;42408;53.238;5.686;2023-03-21T15:29:13;11.40;99.90
56512;DHT22;42408;53.238;5.686;2023-03-21T15:31:41;11.40;99.90
56512;DHT22;42408;53.238;5.686;2023-03-21T15:34:26;11.50;99.90
56512;DHT22;42408;53.238;5.686;2023-03-21T15:36:59;11.40;99.90
56512;DHT22;42408;53.238;5.686;2023-03-21T15:39:27;11.40;99.90
56512;DHT22;42408;53.238;5.686;2023-03-21T15:41:58;11.40;99.90
56512;DHT22;42408;53.238;5.686;2023-03-21T15:44:25;11.30;99.90
56512;DHT22;42408;53.238;5.686;2023-03-21T15:46:51;11.30;99.90
56512;DHT22;42408;53.238;5.686;2023-03-21T15:49:30;11.20;99.90
56512;DHT22;42408;53.238;5.686;2023-03-21T15:52:20;11.10;99.90
56512;DHT22;42408;53.238;5.686;2023-03-21T15:54:50;11.10;99.90
56512;DHT22;42408;53.238;5.686;2023-03-21T15:57:27;11.00;99.90
56512;DHT22;42408;53.238;5.686;2023-03-21T16:00:06;11.00;99.90
56512;DHT22;42408;53.238;5.686;2023-03-21T16:02:38;10.90;99.90
56512;DHT22;42408;53.238;5.686;2023-03-21T16:05:28;11.00;99.90
56512;DHT22;42408;53.238;5.686;2023-03-21T16:08:03;11.00;99.90
56512;DHT22;42408;53.238;5.686;2023-03-21T16:10:31;10.90;99.90
56512;DHT22;42408;53.238;5.686;2023-03-21T16:12:58;10.90;99.90
56512;DHT22;42408;53.238;5.686;2023-03-21T16:15:24;10.90;99.90
56512;DHT22;42408;53.238;5.686;2023-03-21T16:17:56;10.90;99.90
56512;DHT22;42408;53.238;5.686;2023-03-21T16:20:33;10.80;99.90
56512;DHT22;42408;53.238;5.686;2023-03-21T16:22:59;10.80;99.90
56512;DHT22;42408;53.238;5.686;2023-03-21T16:25:25;10.80;99.90
56512;DHT22;42408;53.238;5.686;2023-03-21T16:27:52;10.70;99.90
56512;DHT22;42408;53.238;5.686;2023-03-21T16:30:20;10.70;99.90
56512;DHT22;42408;53.238;5.686;2023-03-21T16:32:46;10.70;99.90
56512;DHT22;42408;53.238;5.686;2023-03-21T16:35:15;10.70;99.90
56512;DHT22;42408;53.238;5.686;2023-03-21T16:37:41;10.70;99.90
56512;DHT22;42408;53.238;5.686;2023-03-21T16:40:37;10.70;99.90
56512;DHT22;42408;53.238;5.686;2023-03-21T16:43:03;10.70;99.90
56512;DHT22;42408;53.238;5.686;2023-03-21T16:45:29;10.70;99.90
56512;DHT22;42408;53.238;5.686;2023-03-21T16:47:55;10.70;99.90
56512;DHT22;42408;53.238;5.686;2023-03-21T16:52:53;10.70;99.90
56512;DHT22;42408;53.238;5.686;2023-03-21T16:55:19;10.70;99.90
56512;DHT22;42408;53.238;5.686;2023-03-21T16:57:46;10.60;99.90
56512;DHT22;42408;53.238;5.686;2023-03-21T17:00:15;10.70;99.90
56512;DHT22;42408;53.238;5.686;2023-03-21T17:02:46;10.70;99.90
56512;DHT22;42408;53.238;5.686;2023-03-21T17:05:12;10.70;99.90
56512;DHT22;42408;53.238;5.686;2023-03-21T17:07:38;10.60;99.90
56512;DHT22;42408;53.238;5.686;2023-03-21T17:10:18;10.60;99.90
56512;DHT22;42408;53.238;5.686;2023-03-21T17:12:45;10.60;99.90
56512;DHT22;42408;53.238;5.686;2023-03-21T17:15:11;10.60;99.90
56512;DHT22;42408;53.238;5.686;2023-03-21T17:17:36;10.60;99.90
56512;DHT22;42408;53.238;5.686;2023-03-21T17:20:23;10.60;99.90
56512;DHT22;42408;53.238;5.686;2023-03-21T17:22:49;10.70;99.90
56512;DHT22;42408;53.238;5.686;2023-03-21T17:25:16;10.70;99.90
56512;DHT22;42408;53.238;5.686;2023-03-21T17:27:43;10.70;99.90
56512;DHT22;42408;53.238;5.686;2023-03-21T17:30:24;10.70;99.90
56512;DHT22;42408;53.238;5.686;2023-03-21T17:32:50;10.70;99.90
56512;DHT22;42408;53.238;5.686;2023-03-21T17:35:17;10.60;99.90
56512;DHT22;42408;53.238;5.686;2023-03-21T17:37:43;10.60;99.90
56512;DHT22;42408;53.238;5.686;2023-03-21T17:40:22;10.60;99.90
56512;DHT22;42408;53.238;5.686;2023-03-21T17:42:49;10.60;99.90
56512;DHT22;42408;53.238;5.686;2023-03-21T17:45:15;10.60;99.90
56512;DHT22;42408;53.238;5.686;2023-03-21T17:47:41;10.60;99.90
56512;DHT22;42408;53.238;5.686;2023-03-21T17:50:18;10.60;99.90
56512;DHT22;42408;53.238;5.686;2023-03-21T17:52:44;10.50;99.90